Time;durP1;ratioP1;P1;durP2;ratioP2;P2;SDS_P1;SDS_P2;PMS_P1;PMS_P2;Temp;Humidity;BMP_temperature;BMP_pressure;BME280_temperature;BME280_humidity;BME280_pressure;Samples;Min_cycle;Max_cycle;Signal;HPM_P1;HPM_P2
2023/12/01 00:02:24;;;;;;;168.40;81.10;;;;;;;-3.72;91.64;98867.13;131276;1296;22607;-81
2023/12/01 00:05:24;;;;;;;178.60;79.00;;;;;;;-3.70;91.78;98884.25;131249;1293;22562;-82
2023/12/01 00:08:25;;;;;;;173.50;80.20;;;;;;;-3.69;91.78;98884.72;131601;1294;22612;-83
2023/12/01 00:11:25;;;;;;;171.00;80.30;;;;;;;-3.64;91.93;98881.13;131345;1298;22600;-82
2023/12/01 00:14:26;;;;;;;176.30;84.00;;;;;;;-3.62;91.96;98894.11;131651;1297;22547;-82
2023/12/01 00:17:27;;;;;;;163.00;79.00;;;;;;;-3.61;91.75;98898.84;131405;1294;24244;-84
2023/12/01 00:20:27;;;;;;;157.70;75.10;;;;;;;-3.57;91.94;98894.86;131344;1301;22607;-82
2023/12/01 00:23:29;;;;;;;167.20;78.40;;;;;;;-3.55;91.92;98897.27;131317;1297;24260;-82
2023/12/01 00:26:29;;;;;;;161.50;76.90;;;;;;;-3.51;91.79;98895.42;131475;1295;24279;-83
2023/12/01 00:29:30;;;;;;;163.30;75.60;;;;;;;-3.46;92.03;98892.30;131219;1304;22651;-82
2023/12/01 00:32:32;;;;;;;167.90;79.90;;;;;;;-3.43;92.06;98891.73;131095;1298;22595;-83
2023/12/01 00:35:33;;;;;;;167.10;78.00;;;;;;;-3.39;91.94;98894.91;131314;1295;25424;-82
2023/12/01 00:38:34;;;;;;;165.90;81.10;;;;;;;-3.35;92.06;98893.45;131552;1293;25523;-82
2023/12/01 00:41:35;;;;;;;166.20;78.80;;;;;;;-3.31;92.06;98898.52;131611;1289;25326;-84
2023/12/01 00:44:36;;;;;;;157.00;73.40;;;;;;;-3.28;92.10;98893.24;132511;1293;22612;-83
2023/12/01 00:47:37;;;;;;;159.40;77.50;;;;;;;-3.26;92.17;98898.16;131203;1291;22729;-82
2023/12/01 00:50:39;;;;;;;164.10;76.60;;;;;;;-3.25;92.05;98894.27;131333;1298;23335;-83
2023/12/01 00:53:40;;;;;;;153.50;76.00;;;;;;;-3.24;92.13;98889.88;131237;1299;22556;-81
2023/12/01 00:56:40;;;;;;;162.60;79.70;;;;;;;-3.23;92.11;98891.52;131111;1298;22555;-84
2023/12/01 00:59:41;;;;;;;165.60;76.80;;;;;;;-3.21;92.23;98880.16;131496;1295;24301;-82
2023/12/01 01:02:42;;;;;;;;;;;;;;;-3.21;91.80;98879.27;131549;1298;22651;-83
2023/12/01 01:05:42;;;;;;;161.30;74.20;;;;;;;-3.21;92.00;98882.73;131224;1298;22572;-81
2023/12/01 01:08:43;;;;;;;;;;;;;;;-3.21;92.00;98887.92;131319;1301;22582;-83
2023/12/01 01:11:43;;;;;;;155.60;75.00;;;;;;;-3.22;92.23;98889.88;131568;1299;22696;-83
2023/12/01 01:14:44;;;;;;;168.50;77.20;;;;;;;-3.20;92.07;98887.71;131124;1300;24729;-81
2023/12/01 01:17:45;;;;;;;165.90;77.90;;;;;;;-3.20;92.44;98886.46;131148;1293;22674;-83
2023/12/01 01:20:45;;;;;;;156.40;72.40;;;;;;;-3.18;92.39;98885.65;131296;1299;22572;-84
2023/12/01 01:23:46;;;;;;;153.60;77.40;;;;;;;-3.16;92.33;98888.58;131453;1298;22578;-83
2023/12/01 01:26:46;;;;;;;164.00;78.30;;;;;;;-3.12;92.22;98891.15;131591;1298;22929;-81
2023/12/01 01:29:47;;;;;;;167.70;76.10;;;;;;;-3.13;92.15;98893.05;131304;1298;22563;-81
2023/12/01 01:32:48;;;;;;;147.70;70.50;;;;;;;-3.13;92.22;98887.58;131516;1297;22577;-83
2023/12/01 01:35:48;;;;;;;139.40;71.40;;;;;;;-3.18;91.89;98885.44;131550;1298;22592;-83
2023/12/01 01:38:49;;;;;;;136.70;67.30;;;;;;;-3.24;91.99;98880.54;131099;1298;23068;-83
2023/12/01 01:41:50;;;;;;;142.40;69.50;;;;;;;-3.31;91.89;98878.49;131260;1301;22568;-82
2023/12/01 01:44:51;;;;;;;142.80;68.30;;;;;;;-3.38;91.79;98884.63;131311;1297;23689;-82
2023/12/01 01:47:52;;;;;;;138.50;67.80;;;;;;;-3.44;91.88;98882.64;131366;1298;22605;-82
2023/12/01 01:50:53;;;;;;;149.40;70.50;;;;;;;-3.46;92.00;98884.05;131565;1298;22572;-82
2023/12/01 01:53:54;;;;;;;142.30;67.80;;;;;;;-3.46;92.00;98896.48;131244;1298;22608;-83
2023/12/01 01:56:58;;;;;;;137.40;66.50;;;;;;;-3.47;92.18;98904.10;131406;1298;25384;-82
2023/12/01 01:59:58;;;;;;;148.90;69.30;;;;;;;-3.47;92.16;98913.62;131240;1300;23554;-82
2023/12/01 02:02:59;;;;;;;156.40;73.50;;;;;;;-3.49;92.33;98915.19;131220;1300;22593;-83
2023/12/01 02:06:06;;;;;;;147.50;73.90;;;;;;;-3.52;91.99;98911.21;131114;1298;22655;-83
2023/12/01 02:09:06;;;;;;;144.30;68.20;;;;;;;-3.52;92.18;98906.23;131234;1298;22702;-83
2023/12/01 02:12:07;;;;;;;145.70;73.70;;;;;;;-3.52;92.20;98905.52;131009;1304;24314;-82
2023/12/01 02:15:10;;;;;;;171.80;76.80;;;;;;;-3.49;92.27;98911.70;130907;1298;155961;-83
2023/12/01 02:18:24;;;;;;;165.30;77.60;;;;;;;-3.46;92.37;98918.40;130952;1301;22560;-83
2023/12/01 02:21:26;;;;;;;166.20;76.40;;;;;;;-3.44;92.43;98927.63;131149;1299;22569;-84
2023/12/01 02:24:26;;;;;;;158.40;74.70;;;;;;;-3.47;92.23;98932.14;131131;1298;22613;-83
2023/12/01 02:27:27;;;;;;;160.60;76.10;;;;;;;-3.49;92.52;98937.27;131024;1301;22609;-82
2023/12/01 02:30:27;;;;;;;159.70;74.30;;;;;;;-3.48;92.46;98936.15;131070;1301;22558;-82
2023/12/01 02:33:28;;;;;;;170.40;78.90;;;;;;;-3.53;92.33;98925.52;131001;1298;22635;-83
2023/12/01 02:36:28;;;;;;;164.00;75.90;;;;;;;-3.64;92.70;98917.55;130937;1297;22573;-83
2023/12/01 02:39:29;;;;;;;190.60;88.00;;;;;;;-3.76;93.06;98912.52;130871;1299;22604;-83
2023/12/01 02:42:29;;;;;;;191.30;87.40;;;;;;;-3.84;93.18;98906.88;131183;1298;22614;-82
2023/12/01 02:45:30;;;;;;;183.30;84.80;;;;;;;-3.90;93.36;98902.98;131467;1298;26175;-82
2023/12/01 02:48:31;;;;;;;179.70;85.80;;;;;;;-3.94;93.76;98893.02;131119;1295;22575;-83
2023/12/01 02:51:31;;;;;;;178.10;85.10;;;;;;;-3.98;93.95;98881.94;131501;1298;25488;-81
2023/12/01 02:54:32;;;;;;;172.60;85.00;;;;;;;-4.00;93.69;98889.49;131478;1298;25534;-82
2023/12/01 02:57:33;;;;;;;177.20;82.80;;;;;;;-3.97;93.90;98885.98;131290;1298;24301;-83
2023/12/01 03:00:35;;;;;;;165.00;77.50;;;;;;;-3.93;93.93;98877.55;131319;1298;23279;-82
2023/12/01 03:03:35;;;;;;;173.70;79.10;;;;;;;-3.91;93.96;98891.48;131475;1295;22556;-83
2023/12/01 03:06:36;;;;;;;177.60;83.30;;;;;;;-3.89;93.93;98916.33;131485;1297;23309;-83
2023/12/01 03:09:37;;;;;;;176.20;79.80;;;;;;;-3.83;94.04;98938.73;131136;1295;23953;-84
2023/12/01 03:12:39;;;;;;;178.70;82.10;;;;;;;-3.75;94.23;98940.80;131175;1301;22611;-82
2023/12/01 03:15:41;;;;;;;171.30;81.40;;;;;;;-3.68;93.90;98930.13;131096;1298;23667;-84
2023/12/01 03:18:41;;;;;;;165.10;79.00;;;;;;;-3.63;93.97;98922.54;131119;1298;22619;-84
2023/12/01 03:21:42;;;;;;;175.50;82.90;;;;;;;-3.57;94.33;98927.67;131525;1297;25193;-82
2023/12/01 03:24:47;;;;;;;167.90;79.60;;;;;;;-3.49;94.07;98915.54;131444;1298;23372;-82
2023/12/01 03:27:48;;;;;;;164.60;78.10;;;;;;;-3.44;94.33;98904.44;131224;1298;22574;-83
2023/12/01 03:30:49;;;;;;;156.10;75.00;;;;;;;-3.41;93.98;98896.63;131084;1282;24007;-81
2023/12/01 03:33:49;;;;;;;153.70;74.90;;;;;;;-3.42;93.86;98896.87;131067;1297;26510;-85
2023/12/01 03:36:51;;;;;;;141.30;67.80;;;;;;;-3.43;93.80;98881.71;131453;1297;22703;-83
2023/12/01 03:39:51;;;;;;;139.50;67.70;;;;;;;-3.46;94.01;98864.47;131413;1297;23306;-81
2023/12/01 03:42:52;;;;;;;140.00;69.00;;;;;;;-3.50;94.07;98861.25;131428;1295;24275;-82
2023/12/01 03:45:52;;;;;;;139.00;68.10;;;;;;;-3.53;93.90;98892.08;131146;1297;25282;-82
2023/12/01 03:48:53;;;;;;;144.40;69.40;;;;;;;-3.51;94.06;98903.05;131219;1298;23351;-82
2023/12/01 03:51:53;;;;;;;145.40;68.90;;;;;;;-3.49;94.16;98899.29;131494;1298;22673;-81
2023/12/01 03:54:54;;;;;;;144.20;67.80;;;;;;;-3.48;94.29;98898.30;131642;1297;24065;-81
2023/12/01 03:57:54;;;;;;;143.50;66.90;;;;;;;-3.44;94.19;98920.54;131584;1298;22599;-82
2023/12/01 04:00:55;;;;;;;150.30;73.00;;;;;;;-3.40;94.18;98920.77;131436;1298;26554;-81
2023/12/01 04:03:55;;;;;;;139.50;71.80;;;;;;;-3.35;94.32;98920.77;131658;1298;22759;-82
2023/12/01 04:06:57;;;;;;;140.70;66.20;;;;;;;-3.30;94.27;98922.11;131354;1288;22609;-81
2023/12/01 04:09:57;;;;;;;139.60;67.80;;;;;;;-3.27;94.33;98937.29;131331;1295;22539;-83
2023/12/01 04:13:06;;;;;;;145.90;68.20;;;;;;;-3.24;94.21;98921.35;131604;1298;22603;-82
2023/12/01 04:16:08;;;;;;;139.50;69.00;;;;;;;-3.20;94.11;98923.64;131198;1301;22573;-82
2023/12/01 04:19:09;;;;;;;145.30;68.70;;;;;;;-3.16;94.11;98916.84;131200;1298;24389;-81
2023/12/01 04:22:09;;;;;;;145.60;69.20;;;;;;;-3.14;94.32;98915.34;131296;1298;23739;-81
2023/12/01 04:25:10;;;;;;;144.10;67.70;;;;;;;-3.09;94.20;98921.88;131428;1298;22650;-81
2023/12/01 04:28:10;;;;;;;144.00;68.30;;;;;;;-3.07;94.07;98923.95;131554;1301;22846;-81
2023/12/01 04:31:11;;;;;;;138.50;70.60;;;;;;;-3.06;93.97;98925.29;131279;1289;27581;-81
2023/12/01 04:34:11;;;;;;;140.80;69.00;;;;;;;-3.06;94.32;98929.23;131268;1298;22702;-81
2023/12/01 04:37:12;;;;;;;156.30;71.80;;;;;;;-3.04;94.08;98940.50;131641;1291;23434;-81
2023/12/01 04:40:15;;;;;;;140.10;67.40;;;;;;;-3.02;94.25;98952.52;131281;1298;23015;-82
2023/12/01 04:43:17;;;;;;;138.60;64.90;;;;;;;-3.03;94.09;98940.61;131510;1294;22605;-81
2023/12/01 04:46:18;;;;;;;146.10;70.60;;;;;;;-3.03;94.13;98942.52;131574;1298;22648;-81
2023/12/01 04:49:18;;;;;;;136.30;67.40;;;;;;;-3.00;94.13;98935.57;131495;1298;25326;-82
2023/12/01 04:52:19;;;;;;;156.50;73.60;;;;;;;-2.97;94.12;98934.31;131501;1298;22721;-82
2023/12/01 04:55:23;;;;;;;143.30;69.20;;;;;;;-2.95;94.21;98940.59;131099;1292;22571;-82
2023/12/01 04:58:23;;;;;;;147.40;70.80;;;;;;;-2.96;93.95;98948.94;131513;1297;22597;-81
2023/12/01 05:01:24;;;;;;;150.90;72.40;;;;;;;-2.98;94.06;98949.25;131425;1297;24385;-83
2023/12/01 05:04:24;;;;;;;141.70;70.70;;;;;;;-2.99;93.83;98942.20;131156;1298;22630;-83
2023/12/01 05:07:27;;;;;;;148.40;66.70;;;;;;;-3.04;93.84;98932.75;131255;1298;24298;-82
2023/12/01 05:10:32;;;;;;;138.60;68.70;;;;;;;-3.12;93.46;98936.79;131519;1298;23424;-81
2023/12/01 05:13:32;;;;;;;145.30;70.50;;;;;;;-3.13;93.97;98946.20;131444;1299;24276;-82
2023/12/01 05:16:33;;;;;;;159.10;72.10;;;;;;;-3.12;93.95;98954.92;131099;1298;22559;-82
2023/12/01 05:19:33;;;;;;;147.70;67.30;;;;;;;-3.11;93.96;98955.23;131557;1295;24215;-82
2023/12/01 05:22:34;;;;;;;158.10;73.90;;;;;;;-3.17;93.90;98952.81;131558;1289;23976;-82
2023/12/01 05:25:56;;;;;;;155.40;75.60;;;;;;;-3.19;93.84;98953.72;131767;1295;22642;-83
2023/12/01 05:28:59;;;;;;;147.10;71.60;;;;;;;-3.21;93.79;98961.95;131350;1292;22632;-83
2023/12/01 05:32:00;;;;;;;157.00;72.10;;;;;;;-3.22;93.96;98950.05;131451;1298;22568;-86
2023/12/01 05:35:00;;;;;;;143.40;69.20;;;;;;;-3.24;94.12;98952.98;131365;1291;22603;-82
2023/12/01 05:38:04;;;;;;;145.30;72.80;;;;;;;-3.25;94.00;98951.67;131536;1301;23868;-82
2023/12/01 05:41:09;;;;;;;160.40;72.90;;;;;;;-3.29;93.93;98959.59;131319;1298;22545;-82
2023/12/01 05:44:09;;;;;;;141.70;66.40;;;;;;;-3.31;93.97;98956.80;131644;1298;22659;-84
2023/12/01 05:47:10;;;;;;;158.90;75.30;;;;;;;-3.37;93.96;98954.65;131635;1292;23627;-82
2023/12/01 05:50:20;;;;;;;151.60;71.80;;;;;;;-3.43;93.86;98954.33;131557;1298;24244;-81
2023/12/01 05:53:20;;;;;;;149.90;70.80;;;;;;;-3.47;94.31;98958.05;131361;1298;22581;-83
2023/12/01 05:56:21;;;;;;;142.40;70.90;;;;;;;-3.49;94.20;98958.58;131683;1292;22579;-83
2023/12/01 05:59:22;;;;;;;151.50;72.00;;;;;;;-3.50;94.38;98955.31;131660;1289;24234;-85
2023/12/01 06:02:22;;;;;;;147.80;71.40;;;;;;;-3.49;94.27;98942.18;131284;1298;22559;-81
2023/12/01 06:05:23;;;;;;;139.60;67.30;;;;;;;-3.54;94.19;98935.90;131299;1298;22563;-84
2023/12/01 06:08:23;;;;;;;134.40;66.30;;;;;;;-3.56;94.27;98941.07;131136;1304;22567;-81
2023/12/01 06:11:24;;;;;;;129.60;63.00;;;;;;;-3.58;94.28;98950.91;131280;1298;24342;-81
2023/12/01 06:14:24;;;;;;;130.80;62.50;;;;;;;-3.57;94.42;98957.23;131602;1301;22582;-83
2023/12/01 06:17:25;;;;;;;125.90;62.50;;;;;;;-3.61;94.31;98962.19;131413;1295;24267;-81
2023/12/01 06:20:25;;;;;;;125.50;60.70;;;;;;;-3.63;94.56;98959.36;131487;1298;22631;-81
2023/12/01 06:23:26;;;;;;;;;;;;;;;-3.66;94.44;98955.23;131520;1298;26207;-82
2023/12/01 06:26:26;;;;;;;294.30;147.90;;;;;;;-3.68;94.66;98951.20;131312;1298;23008;-81
2023/12/01 06:29:28;;;;;;;240.60;122.60;;;;;;;-3.70;94.72;98952.72;131111;1299;25281;-81
2023/12/01 06:32:28;;;;;;;179.40;90.70;;;;;;;-3.71;94.83;98964.39;131484;1298;23247;-82
2023/12/01 06:35:29;;;;;;;133.20;64.10;;;;;;;-3.68;94.59;98966.95;131072;1301;22594;-82
2023/12/01 06:38:29;;;;;;;131.50;63.80;;;;;;;-3.65;94.70;98970.37;131537;1298;22667;-82
2023/12/01 06:41:30;;;;;;;122.80;62.20;;;;;;;-3.63;94.62;98968.36;131480;1298;22584;-82
2023/12/01 06:44:34;;;;;;;127.60;62.90;;;;;;;-3.60;94.61;98965.52;131419;1299;25374;-83
2023/12/01 06:47:35;;;;;;;111.60;57.00;;;;;;;-3.57;94.89;98969.16;131561;1299;22581;-82
2023/12/01 06:50:35;;;;;;;121.40;59.30;;;;;;;-3.53;94.82;98971.31;131554;1297;25304;-82
2023/12/01 06:53:36;;;;;;;121.90;58.30;;;;;;;-3.48;94.89;98973.90;131601;1297;22723;-84
2023/12/01 06:56:37;;;;;;;127.90;60.90;;;;;;;-3.44;94.83;98971.91;131525;1298;22691;-83
2023/12/01 06:59:37;;;;;;;;;;;;;;;-3.40;94.92;98971.40;131515;1298;22554;-81
2023/12/01 07:02:38;;;;;;;122.50;59.70;;;;;;;-3.35;94.85;98977.97;131520;1298;25467;-81
2023/12/01 07:05:39;;;;;;;127.70;60.80;;;;;;;-3.30;94.86;98981.98;131508;1298;22672;-82
2023/12/01 07:08:40;;;;;;;170.30;76.60;;;;;;;-3.26;94.79;98978.95;131150;1298;24231;-81
2023/12/01 07:11:42;;;;;;;184.50;80.10;;;;;;;-3.21;95.05;98975.29;131472;1280;24110;-83
2023/12/01 07:14:42;;;;;;;155.00;72.30;;;;;;;-3.15;94.77;98981.11;131317;1301;22685;-81
2023/12/01 07:17:43;;;;;;;199.30;83.90;;;;;;;-3.11;94.67;98982.94;131424;1301;22566;-82
2023/12/01 07:20:43;;;;;;;189.10;85.10;;;;;;;-3.07;94.81;98987.48;131179;1301;23302;-82
2023/12/01 07:23:46;;;;;;;150.10;68.50;;;;;;;-3.03;95.08;98990.77;131475;1298;25271;-81
2023/12/01 07:26:51;;;;;;;236.50;90.50;;;;;;;-2.98;94.73;98988.72;131143;1298;24607;-83
2023/12/01 07:29:53;;;;;;;238.40;91.20;;;;;;;-3.03;94.46;98987.52;130832;1304;22574;-84
2023/12/01 07:32:54;;;;;;;189.10;79.70;;;;;;;-3.04;94.48;98984.10;131233;1292;22611;-82
2023/12/01 07:35:57;;;;;;;156.20;71.80;;;;;;;-3.02;94.48;98977.41;131326;1299;25387;-82
2023/12/01 07:38:57;;;;;;;129.70;63.50;;;;;;;-2.99;94.69;98983.10;131591;1295;22669;-81
2023/12/01 07:41:58;;;;;;;141.10;67.20;;;;;;;-2.91;94.94;98984.40;131672;1295;25405;-81
2023/12/01 07:44:59;;;;;;;137.70;65.60;;;;;;;-2.82;95.08;98988.44;131570;1298;26478;-82
2023/12/01 07:48:00;;;;;;;134.00;64.40;;;;;;;-2.72;95.11;98994.30;131519;1296;23671;-82
2023/12/01 07:51:02;;;;;;;134.30;65.70;;;;;;;-2.60;95.08;98992.94;131466;1304;22674;-81
2023/12/01 07:54:03;;;;;;;136.70;63.90;;;;;;;-2.53;95.08;98998.66;131252;1299;22626;-81
2023/12/01 07:57:04;;;;;;;133.50;67.20;;;;;;;-2.49;94.72;98997.67;131577;1298;22691;-81
2023/12/01 08:00:14;;;;;;;146.50;69.40;;;;;;;-2.45;95.03;98992.77;131508;1289;22584;-82
2023/12/01 08:03:14;;;;;;;136.60;67.30;;;;;;;-2.38;95.15;98992.00;131258;1298;25329;-83
2023/12/01 08:06:15;;;;;;;141.40;67.60;;;;;;;-2.30;94.97;99000.93;131167;1298;24413;-81
2023/12/01 08:09:16;;;;;;;145.60;71.10;;;;;;;-2.27;94.55;98997.30;131155;1298;24393;-81
2023/12/01 08:12:19;;;;;;;135.40;65.50;;;;;;;-2.21;94.62;99003.27;131573;1295;25509;-82
2023/12/01 08:15:19;;;;;;;143.60;68.90;;;;;;;-2.19;94.42;99012.50;131552;1298;22631;-82
2023/12/01 08:18:20;;;;;;;154.50;71.70;;;;;;;-2.11;94.85;99009.58;131515;1298;22722;-83
2023/12/01 08:21:20;;;;;;;145.70;71.80;;;;;;;-1.97;95.10;99013.95;131573;1301;25329;-82
2023/12/01 08:24:21;;;;;;;143.80;72.50;;;;;;;-1.83;95.19;99018.14;131466;1285;22621;-82
2023/12/01 08:27:22;;;;;;;145.40;72.20;;;;;;;-1.61;95.34;99032.98;131511;1301;25501;-83
2023/12/01 08:30:22;;;;;;;;;;;;;;;-1.39;95.32;99036.27;131294;1298;22615;-83
2023/12/01 08:33:22;;;;;;;151.80;71.70;;;;;;;-1.26;95.12;99036.88;131605;1301;24305;-83
2023/12/01 08:36:24;;;;;;;137.80;63.90;;;;;;;-1.20;94.63;99032.07;131290;1303;23148;-83
2023/12/01 08:39:25;;;;;;;131.30;65.00;;;;;;;-1.23;94.10;99035.80;131159;1298;22578;-82
2023/12/01 08:42:25;;;;;;;134.20;66.10;;;;;;;-1.24;93.97;99045.36;131360;1298;23380;-82
2023/12/01 08:45:26;;;;;;;141.10;67.00;;;;;;;-1.24;93.92;99040.20;131134;1304;24414;-83
2023/12/01 08:48:26;;;;;;;179.60;89.70;;;;;;;-1.24;93.90;99036.15;131098;1298;22620;-82
2023/12/01 08:51:27;;;;;;;161.70;80.50;;;;;;;-1.24;93.97;99047.96;131016;1302;24288;-82
2023/12/01 08:54:27;;;;;;;162.50;81.40;;;;;;;-1.15;94.38;99063.98;131099;1298;25625;-82
2023/12/01 08:57:28;;;;;;;136.90;67.60;;;;;;;-1.06;94.22;99067.39;131072;1301;22568;-82
2023/12/01 09:00:29;;;;;;;130.10;67.30;;;;;;;-1.07;93.57;99067.86;131267;1301;22719;-85
2023/12/01 09:03:30;;;;;;;125.70;62.90;;;;;;;-1.11;93.22;99069.91;131086;1297;22596;-82
2023/12/01 09:06:31;;;;;;;127.50;65.60;;;;;;;-1.16;93.10;99070.11;130994;1299;22762;-82
2023/12/01 09:09:31;;;;;;;132.10;67.80;;;;;;;-1.12;93.37;99071.84;130933;1299;22605;-83
2023/12/01 09:12:32;;;;;;;134.90;67.40;;;;;;;-1.04;93.25;99072.86;131280;1301;25525;-82
2023/12/01 09:15:32;;;;;;;139.00;68.50;;;;;;;-1.01;93.44;99081.95;131112;1301;23478;-82
2023/12/01 09:18:33;;;;;;;127.60;65.00;;;;;;;-0.92;93.43;99084.70;131134;1299;24578;-82
2023/12/01 09:21:33;;;;;;;128.60;65.50;;;;;;;-0.85;93.27;99083.66;131365;1299;22602;-83
2023/12/01 09:24:34;;;;;;;125.20;63.60;;;;;;;-0.76;93.48;99079.36;131073;1299;24741;-82
2023/12/01 09:27:35;;;;;;;125.80;61.50;;;;;;;-0.67;93.32;99077.07;131244;1299;22714;-81
2023/12/01 09:30:36;;;;;;;125.60;60.50;;;;;;;-0.55;93.05;99076.47;131157;1301;22685;-83
2023/12/01 09:33:37;;;;;;;116.90;61.50;;;;;;;-0.48;92.90;99072.41;131363;1295;22650;-82
2023/12/01 09:36:38;;;;;;;118.60;61.30;;;;;;;-0.36;92.99;99075.48;131081;1298;22622;-83
2023/12/01 09:39:39;;;;;;;113.70;58.70;;;;;;;-0.15;93.13;99081.62;131546;1295;24294;-82
2023/12/01 09:42:41;;;;;;;120.40;63.40;;;;;;;0.06;93.34;99081.29;131657;1302;22561;-84
2023/12/01 09:45:42;;;;;;;116.40;59.90;;;;;;;0.25;92.95;99088.58;131691;1295;22598;-82
2023/12/01 09:48:46;;;;;;;122.40;62.10;;;;;;;0.33;92.33;99085.84;131657;1297;24297;-82
2023/12/01 09:51:46;;;;;;;109.10;58.30;;;;;;;0.38;92.26;99086.66;131388;1299;25410;-82
2023/12/01 09:54:47;;;;;;;111.40;59.10;;;;;;;0.39;92.03;99088.32;131207;1304;25418;-82
2023/12/01 09:57:48;;;;;;;113.80;58.20;;;;;;;0.37;91.75;99092.48;131517;1302;27118;-82
2023/12/01 10:00:49;;;;;;;109.80;59.50;;;;;;;0.35;91.62;99083.46;131630;1298;22745;-83
2023/12/01 10:03:49;;;;;;;111.10;56.00;;;;;;;0.31;91.49;99080.50;131303;1299;22556;-82
2023/12/01 10:06:50;;;;;;;114.10;58.50;;;;;;;0.25;91.23;99072.04;131282;1296;22575;-83
2023/12/01 10:09:50;;;;;;;111.40;57.20;;;;;;;0.24;91.32;99066.76;131544;1300;22597;-82
2023/12/01 10:12:58;;;;;;;107.50;53.40;;;;;;;0.16;90.71;99058.55;131139;1292;22597;-84
2023/12/01 10:15:59;;;;;;;111.00;57.60;;;;;;;0.09;90.61;99053.27;131407;1304;24297;-83
2023/12/01 10:19:00;;;;;;;104.20;53.40;;;;;;;0.14;91.10;99063.56;131591;1296;22598;-83
2023/12/01 10:22:01;;;;;;;100.50;53.60;;;;;;;0.28;91.32;99066.77;131187;1301;22611;-83
2023/12/01 10:25:03;;;;;;;103.90;53.00;;;;;;;0.30;90.60;99073.60;131621;1301;22596;-83
2023/12/01 10:28:04;;;;;;;105.90;55.50;;;;;;;0.26;90.54;99075.52;131117;1289;23332;-83
2023/12/01 10:31:06;;;;;;;112.10;55.50;;;;;;;0.22;90.41;99080.18;131638;1298;22637;-82
2023/12/01 10:34:07;;;;;;;109.90;57.70;;;;;;;0.15;90.18;99073.90;131081;1292;25476;-83
2023/12/01 10:37:08;;;;;;;111.60;57.30;;;;;;;0.03;89.95;99070.98;131560;1298;22591;-82
2023/12/01 10:40:13;;;;;;;112.40;57.60;;;;;;;-0.02;90.33;99077.20;131674;1298;22699;-84
2023/12/01 10:43:15;;;;;;;109.10;55.30;;;;;;;0.01;90.31;99073.05;131264;1292;22845;-83
2023/12/01 10:46:17;;;;;;;104.20;53.10;;;;;;;-0.03;90.27;99069.52;131518;1297;24359;-81
2023/12/01 10:49:19;;;;;;;118.10;57.90;;;;;;;-0.02;90.37;99070.82;131254;1298;23435;-84
2023/12/01 10:52:20;;;;;;;114.40;56.70;;;;;;;0.02;90.46;99075.74;131202;1301;22601;-81
2023/12/01 10:55:21;;;;;;;113.10;59.20;;;;;;;-0.03;90.04;99070.55;131233;1295;22563;-81
2023/12/01 10:58:23;;;;;;;108.40;54.70;;;;;;;-0.10;90.01;99068.84;131178;1300;22604;-82
2023/12/01 11:01:27;;;;;;;107.30;54.90;;;;;;;-0.21;89.82;99069.23;131258;1298;22556;-82
2023/12/01 11:04:30;;;;;;;117.40;57.60;;;;;;;-0.30;90.03;99072.59;131458;1301;22621;-84
2023/12/01 11:08:00;;;;;;;121.80;59.60;;;;;;;-0.35;89.86;99082.74;131779;1298;22570;-83
2023/12/01 11:11:17;;;;;;;107.90;54.90;;;;;;;-0.44;89.82;99088.80;131235;1292;22602;-81
2023/12/01 11:14:20;;;;;;;111.10;56.60;;;;;;;-0.50;89.99;99095.88;131221;1291;24617;-83
2023/12/01 11:17:21;;;;;;;124.10;58.90;;;;;;;-0.54;89.98;99093.77;131173;1298;22598;-82
2023/12/01 11:20:36;;;;;;;106.60;54.90;;;;;;;-0.56;90.09;99107.95;131261;1291;22586;-84
2023/12/01 11:23:37;;;;;;;117.20;55.60;;;;;;;-0.55;90.24;99110.30;131328;1299;22624;-82
2023/12/01 11:26:37;;;;;;;103.40;52.70;;;;;;;-0.52;90.34;99101.94;131571;1288;23233;-85
2023/12/01 11:29:57;;;;;;;110.10;55.10;;;;;;;-0.55;89.90;99099.59;131231;1300;24444;-82
2023/12/01 11:32:58;;;;;;;120.20;57.90;;;;;;;-0.62;90.06;99089.17;131331;1295;22732;-81
2023/12/01 11:36:21;;;;;;;118.20;59.20;;;;;;;-0.64;90.14;99092.66;131560;1298;25288;-83
2023/12/01 11:39:26;;;;;;;109.40;55.10;;;;;;;-0.59;90.60;99086.52;131629;1289;25562;-82
2023/12/01 11:42:27;;;;;;;116.80;56.00;;;;;;;-0.56;90.29;99079.70;131355;1304;22593;-83
2023/12/01 11:45:41;;;;;;;113.70;55.80;;;;;;;-0.59;90.06;99073.48;131675;1292;22608;-83
2023/12/01 11:48:41;;;;;;;114.90;57.20;;;;;;;-0.59;90.46;99079.36;131649;1289;22768;-82
2023/12/01 11:51:45;;;;;;;117.00;56.80;;;;;;;-0.60;90.31;99080.48;131394;1298;23093;-82
2023/12/01 11:54:49;;;;;;;111.00;54.80;;;;;;;-0.58;90.53;99094.64;131531;1298;22649;-83
2023/12/01 11:57:56;;;;;;;112.50;55.50;;;;;;;-0.59;90.39;99099.35;131096;1293;22589;-81
2023/12/01 12:00:56;;;;;;;116.00;56.50;;;;;;;-0.58;90.54;99104.36;131524;1298;22560;-82
2023/12/01 12:03:57;;;;;;;110.00;54.50;;;;;;;-0.59;90.35;99100.07;131630;1298;22577;-81
2023/12/01 12:07:01;;;;;;;121.60;61.80;;;;;;;-0.60;90.32;99093.89;131231;1299;22559;-82
2023/12/01 12:10:02;;;;;;;121.20;57.70;;;;;;;-0.63;90.54;99092.04;131570;1298;22598;-82
2023/12/01 12:13:03;;;;;;;118.90;61.20;;;;;;;-0.68;90.34;99092.07;131308;1300;22710;-81
2023/12/01 12:16:04;;;;;;;120.90;60.40;;;;;;;-0.67;90.65;99085.61;131278;1298;24323;-80
2023/12/01 12:19:05;;;;;;;121.50;59.20;;;;;;;-0.65;90.72;99087.37;131561;1298;22820;-83
2023/12/01 12:22:05;;;;;;;128.10;62.20;;;;;;;-0.65;90.71;99083.32;131247;1292;24340;-82
2023/12/01 12:25:08;;;;;;;131.60;63.60;;;;;;;-0.61;90.92;99089.23;131226;1298;25638;-82
2023/12/01 12:28:12;;;;;;;122.90;60.40;;;;;;;-0.57;90.87;99095.23;131223;1300;22714;-84
2023/12/01 12:31:12;;;;;;;123.10;59.30;;;;;;;-0.55;91.09;99094.56;131038;1289;22651;-82
2023/12/01 12:34:13;;;;;;;125.20;57.10;;;;;;;-0.57;91.01;99091.38;131413;1289;23906;-82
2023/12/01 12:37:14;;;;;;;128.50;58.60;;;;;;;-0.59;90.95;99083.91;131147;1301;22581;-81
2023/12/01 12:40:16;;;;;;;124.10;59.00;;;;;;;-0.60;91.01;99078.43;131330;1298;22651;-81
2023/12/01 12:43:20;;;;;;;128.20;58.50;;;;;;;-0.62;91.07;99075.66;131224;1295;22716;-82
2023/12/01 12:46:21;;;;;;;129.20;60.20;;;;;;;-0.65;91.13;99074.96;131285;1298;22624;-84
2023/12/01 12:49:21;;;;;;;123.10;56.40;;;;;;;-0.64;91.29;99064.68;131210;1295;22641;-81
2023/12/01 12:52:22;;;;;;;133.90;62.40;;;;;;;-0.62;91.40;99057.92;131506;1304;22660;-80
2023/12/01 12:55:25;;;;;;;124.80;58.90;;;;;;;-0.61;91.42;99061.33;131505;1289;22607;-84
2023/12/01 12:58:26;;;;;;;114.10;53.50;;;;;;;-0.62;91.40;99075.81;131169;1292;24313;-82
2023/12/01 13:01:27;;;;;;;122.20;58.10;;;;;;;-0.64;91.46;99078.02;131223;1298;22562;-85
2023/12/01 13:04:28;;;;;;;;;;;;;;;-0.63;91.57;99075.74;131210;1297;24238;-81
2023/12/01 13:07:28;;;;;;;107.20;51.90;;;;;;;-0.62;91.82;99075.48;131305;1297;22621;-82
2023/12/01 13:10:29;;;;;;;103.50;49.40;;;;;;;-0.64;91.49;99079.74;131299;1298;22574;-80
2023/12/01 13:13:30;;;;;;;101.40;48.90;;;;;;;-0.65;91.33;99083.31;131290;1298;23294;-80
2023/12/01 13:16:31;;;;;;;99.60;48.30;;;;;;;-0.65;91.50;99089.98;131547;1298;22634;-80
2023/12/01 13:19:31;;;;;;;94.20;45.80;;;;;;;-0.66;91.62;99092.31;131214;1298;22597;-81
2023/12/01 13:22:32;;;;;;;96.10;45.50;;;;;;;-0.65;91.77;99080.08;131390;1296;22557;-85
2023/12/01 13:25:33;;;;;;;;;;;;;;;-0.66;91.54;99077.91;131353;1298;23367;-80
2023/12/01 13:28:33;;;;;;;92.10;46.60;;;;;;;-0.69;91.71;99084.65;131395;1298;23391;-82
2023/12/01 13:31:34;;;;;;;93.10;47.10;;;;;;;-0.72;91.66;99083.14;131336;1300;22792;-81
2023/12/01 13:34:35;;;;;;;96.80;48.40;;;;;;;-0.77;91.56;99079.23;131653;1298;24226;-80
2023/12/01 13:37:38;;;;;;;92.90;46.40;;;;;;;-0.78;91.64;99078.96;131227;1298;22621;-81
2023/12/01 13:40:42;;;;;;;102.90;47.20;;;;;;;-0.80;91.78;99089.40;131429;1298;22694;-81